Terminal Aerodrome Forecast
Issued by NWS Wilmington, OH

Home | Current Version | Previous Version | Text Only | Print | Product List | Glossary On
Versions: 1 2 3 4 5 6 7 8 9 10 11 12 13 14 15 16 17 18 19 20 21 22 23
000
FTUS41 KILN 301100
TAFDAY
TAF
KDAY 301120Z 3012/3112 19009KT P6SM FEW060 BKN250
     FM301400 20011KT P6SM SCT040
     FM301800 21014G22KT P6SM VCTS BKN040CB
     FM302200 20012G20KT P6SM SCT040
     FM310100 20010KT P6SM FEW040 SCT150
     FM310700 19012KT P6SM VCSH SCT025 BKN050=

USA.gov is the U.S. government's official web portal to all federal, state and local government web resources and services.